Time;durP1;ratioP1;P1;durP2;ratioP2;P2;SDS_P1;SDS_P2;PMS_P1;PMS_P2;Temp;Humidity;BMP_temperature;BMP_pressure;BME280_temperature;BME280_humidity;BME280_pressure;Samples;Min_cycle;Max_cycle;Signal;HPM_P1;HPM_P2
2021/03/19 00:01:37;;;;;;;12.50;9.93;;;5.10;99.90;;;;;;4870522;29;20559;-78
2021/03/19 00:04:05;;;;;;;12.77;8.98;;;5.20;99.90;;;;;;4872838;29;20195;-78
2021/03/19 00:06:33;;;;;;;11.63;8.77;;;5.10;99.90;;;;;;4862466;29;20282;-78
2021/03/19 00:09:01;;;;;;;11.88;8.90;;;5.10;99.90;;;;;;4880293;29;20230;-77
2021/03/19 00:11:28;;;;;;;14.75;9.07;;;5.00;99.90;;;;;;4881060;29;20189;-78
2021/03/19 00:13:55;;;;;;;12.52;8.55;;;5.00;99.90;;;;;;4870389;29;20222;-78
2021/03/19 00:16:21;;;;;;;13.50;8.77;;;5.00;99.90;;;;;;4871304;29;20214;-77
2021/03/19 00:18:48;;;;;;;9.48;8.00;;;5.00;99.90;;;;;;4861759;29;20230;-78
2021/03/19 00:21:15;;;;;;;11.00;8.65;;;5.00;99.90;;;;;;4862449;29;20303;-77
2021/03/19 00:23:42;;;;;;;13.35;9.77;;;5.00;99.90;;;;;;4864809;29;20223;-77
2021/03/19 00:26:09;;;;;;;12.25;8.85;;;5.00;99.90;;;;;;4861931;29;20689;-77
2021/03/19 00:28:36;;;;;;;13.25;9.93;;;5.00;99.90;;;;;;4849215;29;20223;-77
2021/03/19 00:31:03;;;;;;;12.48;9.45;;;4.90;99.90;;;;;;4869212;29;20270;-77
2021/03/19 00:33:29;;;;;;;13.70;9.40;;;4.90;99.90;;;;;;4880173;29;20223;-77
2021/03/19 00:35:56;;;;;;;12.38;9.40;;;4.90;99.90;;;;;;4872547;29;20223;-77
2021/03/19 00:38:23;;;;;;;13.05;10.65;;;4.90;99.90;;;;;;4865112;29;20222;-77
2021/03/19 00:40:50;;;;;;;14.45;10.15;;;4.90;99.90;;;;;;4878332;29;20245;-77
2021/03/19 00:43:17;;;;;;;13.80;11.27;;;4.90;99.90;;;;;;4861566;29;20313;-77
2021/03/19 00:45:45;;;;;;;15.80;10.35;;;4.90;99.90;;;;;;4878913;29;20207;-78
2021/03/19 00:48:12;;;;;;;13.68;10.02;;;4.90;99.90;;;;;;4880414;29;20223;-77
2021/03/19 00:50:51;;;;;;;16.13;11.40;;;4.90;99.90;;;;;;4878120;29;20210;-77
2021/03/19 00:53:17;;;;;;;16.33;12.35;;;4.90;99.90;;;;;;4861657;29;20223;-77
2021/03/19 00:55:44;;;;;;;13.93;11.70;;;4.90;99.90;;;;;;4862062;29;20215;-77
2021/03/19 00:58:10;;;;;;;14.38;10.57;;;4.90;99.90;;;;;;4852840;29;20280;-77
2021/03/19 01:00:37;;;;;;;15.18;12.02;;;4.90;99.90;;;;;;4880432;29;20229;-77
2021/03/19 01:03:04;;;;;;;19.92;12.80;;;4.80;99.90;;;;;;4875176;29;20230;-77
2021/03/19 01:05:50;;;;;;;16.98;11.82;;;4.80;99.90;;;;;;4845519;29;20211;-77
2021/03/19 01:08:16;;;;;;;18.80;14.02;;;4.80;99.90;;;;;;4879179;29;20454;-77
2021/03/19 01:10:51;;;;;;;16.90;12.27;;;4.80;99.90;;;;;;4860229;29;20203;-77
2021/03/19 01:13:18;;;;;;;14.32;12.60;;;4.70;99.90;;;;;;4868829;29;20318;-78
2021/03/19 01:15:45;;;;;;;15.30;13.57;;;4.80;99.90;;;;;;4875455;29;20225;-77
2021/03/19 01:18:15;;;;;;;18.50;13.70;;;4.70;99.90;;;;;;4860903;29;20227;-77
2021/03/19 01:20:44;;;;;;;15.27;13.00;;;4.70;99.90;;;;;;4863589;29;20298;-77
2021/03/19 01:23:11;;;;;;;17.15;13.77;;;4.70;99.90;;;;;;4879165;29;20586;-77
2021/03/19 01:25:39;;;;;;;17.45;13.98;;;4.70;99.90;;;;;;4863519;29;20574;-77
2021/03/19 01:28:05;;;;;;;15.93;14.18;;;4.70;99.90;;;;;;4861742;29;20288;-77
2021/03/19 01:30:37;;;;;;;15.23;13.45;;;4.60;99.90;;;;;;4879429;29;20190;-77
2021/03/19 01:33:05;;;;;;;17.40;15.18;;;4.70;99.90;;;;;;4844113;29;20601;-77
2021/03/19 01:35:34;;;;;;;14.70;12.80;;;4.60;99.90;;;;;;4859546;29;20219;-77
2021/03/19 01:38:02;;;;;;;16.83;14.07;;;4.60;99.90;;;;;;4867831;29;20230;-77
2021/03/19 01:40:35;;;;;;;15.98;14.18;;;4.60;99.90;;;;;;4878238;29;20218;-77
2021/03/19 01:43:26;;;;;;;26.25;15.77;;;4.60;99.90;;;;;;4871784;29;20247;-77
2021/03/19 01:46:33;;;;;;;15.20;13.63;;;4.60;99.90;;;;;;4861788;29;20207;-77
2021/03/19 01:49:38;;;;;;;19.27;15.45;;;4.50;99.90;;;;;;4878952;29;20222;-77
2021/03/19 01:52:42;;;;;;;18.08;14.20;;;4.40;99.90;;;;;;4856535;29;20219;-77
2021/03/19 01:55:46;;;;;;;21.25;15.30;;;4.30;99.90;;;;;;4860375;29;20206;-77
2021/03/19 01:58:50;;;;;;;22.33;14.38;;;4.20;99.90;;;;;;4871496;29;20223;-77
2021/03/19 02:01:54;;;;;;;22.88;15.75;;;4.20;99.90;;;;;;4867544;29;20214;-76
2021/03/19 02:05:01;;;;;;;20.00;16.10;;;4.20;99.90;;;;;;4879735;29;20226;-77
2021/03/19 02:08:05;;;;;;;22.45;15.95;;;4.10;99.90;;;;;;4862461;29;20283;-77
2021/03/19 02:11:09;;;;;;;21.65;14.98;;;4.10;99.90;;;;;;4861745;29;20227;-77
2021/03/19 02:14:13;;;;;;;18.95;14.60;;;4.00;99.90;;;;;;4860070;29;20219;-77
2021/03/19 02:17:16;;;;;;;16.50;14.40;;;4.00;99.90;;;;;;4844080;29;20179;-77
2021/03/19 02:20:21;;;;;;;21.15;14.05;;;3.90;99.90;;;;;;4861558;29;20194;-77
2021/03/19 02:23:25;;;;;;;16.80;13.40;;;3.90;99.90;;;;;;4858460;29;20231;-77
2021/03/19 02:26:29;;;;;;;19.75;14.25;;;3.90;99.90;;;;;;4864084;29;20214;-77
2021/03/19 02:29:33;;;;;;;15.88;13.18;;;3.80;99.90;;;;;;4865299;29;20240;-77
2021/03/19 02:32:12;;;;;;;16.30;14.10;;;3.80;99.90;;;;;;4861284;29;20681;-77
2021/03/19 02:34:57;;;;;;;17.10;13.90;;;3.70;99.90;;;;;;4878603;29;20207;-76
2021/03/19 02:37:27;;;;;;;19.00;15.88;;;3.70;99.90;;;;;;4873299;29;20233;-77
2021/03/19 02:39:54;;;;;;;17.80;13.88;;;3.60;99.90;;;;;;4878678;29;20194;-77
2021/03/19 02:42:25;;;;;;;20.88;14.82;;;3.60;99.90;;;;;;4862535;29;20226;-77
2021/03/19 02:44:53;;;;;;;17.42;14.05;;;3.60;99.90;;;;;;4859996;29;20203;-76
2021/03/19 02:47:20;;;;;;;17.17;14.40;;;3.50;99.90;;;;;;4856377;29;20691;-77
2021/03/19 02:49:48;;;;;;;17.55;14.23;;;3.50;99.90;;;;;;4871118;29;20233;-77
2021/03/19 02:52:22;;;;;;;23.50;15.65;;;3.50;99.90;;;;;;4861205;29;20222;-77
2021/03/19 02:54:51;;;;;;;20.92;15.32;;;3.60;99.90;;;;;;4877121;29;20258;-77
2021/03/19 02:57:18;;;;;;;23.35;15.00;;;3.60;99.90;;;;;;4863465;29;20238;-77
2021/03/19 02:59:45;;;;;;;20.70;15.30;;;3.60;99.90;;;;;;4859817;29;20195;-77
2021/03/19 03:02:11;;;;;;;22.45;16.98;;;3.60;99.90;;;;;;4867546;29;20226;-77
2021/03/19 03:04:38;;;;;;;19.58;14.73;;;3.60;99.90;;;;;;4860007;29;20301;-76
2021/03/19 03:07:05;;;;;;;22.95;15.18;;;3.60;99.90;;;;;;4866102;29;20233;-77
2021/03/19 03:09:34;;;;;;;21.17;16.40;;;3.60;99.90;;;;;;4858457;29;20196;-76
2021/03/19 03:12:01;;;;;;;19.10;15.05;;;3.50;99.90;;;;;;4849867;29;20694;-77
2021/03/19 03:14:30;;;;;;;23.92;14.80;;;3.50;99.90;;;;;;4859433;29;20255;-77
2021/03/19 03:17:01;;;;;;;25.63;15.60;;;3.50;99.90;;;;;;4852085;29;20574;-77
2021/03/19 03:19:28;;;;;;;17.85;15.15;;;3.40;99.90;;;;;;4861698;29;20194;-76
2021/03/19 03:21:56;;;;;;;19.23;14.30;;;3.40;99.90;;;;;;4876793;29;20254;-76
2021/03/19 03:24:24;;;;;;;21.30;14.75;;;3.40;99.90;;;;;;4861177;29;20705;-76
2021/03/19 03:26:51;;;;;;;19.58;16.15;;;3.30;99.90;;;;;;4868378;29;20281;-76
2021/03/19 03:29:20;;;;;;;18.92;13.82;;;3.30;99.90;;;;;;4861897;29;20187;-76
2021/03/19 03:31:48;;;;;;;18.85;13.98;;;3.30;99.90;;;;;;4857678;29;20245;-76
2021/03/19 03:34:15;;;;;;;16.75;13.10;;;3.20;99.90;;;;;;4859640;29;20622;-76
2021/03/19 03:36:42;;;;;;;17.58;14.10;;;3.20;99.90;;;;;;4877796;29;20242;-76
2021/03/19 03:39:14;;;;;;;18.98;15.00;;;3.20;99.90;;;;;;4860160;29;20203;-76
2021/03/19 03:41:41;;;;;;;21.98;15.63;;;3.10;99.90;;;;;;4877768;29;20646;-76
2021/03/19 03:44:13;;;;;;;19.10;13.68;;;3.10;99.90;;;;;;4859041;29;20214;-76
2021/03/19 03:46:40;;;;;;;19.38;14.00;;;3.10;99.90;;;;;;4877651;29;20187;-76
2021/03/19 03:49:07;;;;;;;19.38;14.95;;;3.10;99.90;;;;;;4864791;29;20612;-76
2021/03/19 03:51:34;;;;;;;22.60;15.20;;;3.00;99.90;;;;;;4859539;29;20203;-76
2021/03/19 03:54:01;;;;;;;18.48;14.90;;;3.00;99.90;;;;;;4842633;29;20219;-76
2021/03/19 03:56:28;;;;;;;18.80;14.02;;;3.00;99.90;;;;;;4865784;29;20187;-76
2021/03/19 03:58:55;;;;;;;17.08;13.57;;;3.00;99.90;;;;;;4864001;29;20231;-76
2021/03/19 04:01:23;;;;;;;17.30;13.75;;;2.90;99.90;;;;;;4874339;29;20214;-76
2021/03/19 04:03:50;;;;;;;24.40;15.63;;;2.90;99.90;;;;;;4870205;29;20309;-76
2021/03/19 04:06:18;;;;;;;22.60;14.98;;;2.80;99.90;;;;;;4874714;29;20222;-76
2021/03/19 04:08:44;;;;;;;20.30;16.20;;;2.80;99.90;;;;;;4863386;29;20263;-76
2021/03/19 04:11:15;;;;;;;23.02;15.93;;;2.80;99.90;;;;;;4859350;29;20202;-76
2021/03/19 04:13:42;;;;;;;19.70;15.95;;;2.80;99.90;;;;;;4864583;29;20231;-76
2021/03/19 04:16:10;;;;;;;24.52;16.13;;;2.80;99.90;;;;;;4870755;29;20693;-76
2021/03/19 04:18:37;;;;;;;25.30;16.90;;;2.90;99.90;;;;;;4855471;29;20249;-76
2021/03/19 04:21:09;;;;;;;25.05;17.02;;;2.80;99.90;;;;;;4873452;29;20211;-76
2021/03/19 04:23:41;;;;;;;21.10;17.42;;;2.90;99.90;;;;;;4845580;29;20267;-76
2021/03/19 04:26:19;;;;;;;26.20;17.92;;;2.90;99.90;;;;;;4861990;29;20574;-76
2021/03/19 04:28:46;;;;;;;26.75;19.63;;;2.80;99.90;;;;;;4862060;29;20219;-76
2021/03/19 04:31:12;;;;;;;29.05;20.80;;;2.80;99.90;;;;;;4862389;29;20658;-76
2021/03/19 04:33:40;;;;;;;27.13;20.13;;;2.80;99.90;;;;;;4872554;29;20278;-76
2021/03/19 04:36:30;;;;;;;24.30;17.08;;;2.70;99.90;;;;;;4875202;29;20262;-76
2021/03/19 04:39:00;;;;;;;26.10;17.90;;;2.70;99.90;;;;;;4860441;29;20230;-76
2021/03/19 04:41:28;;;;;;;26.17;19.50;;;2.60;99.90;;;;;;4863201;29;20210;-76
2021/03/19 04:43:55;;;;;;;26.83;18.95;;;2.60;99.90;;;;;;4873748;29;20222;-76
2021/03/19 04:46:21;;;;;;;31.65;21.98;;;2.60;99.90;;;;;;4870761;29;20184;-76
2021/03/19 04:48:48;;;;;;;30.88;22.70;;;2.60;99.90;;;;;;4863587;29;20227;-76
2021/03/19 04:51:14;;;;;;;30.05;21.80;;;2.60;99.90;;;;;;4858044;29;20206;-76
2021/03/19 04:53:48;;;;;;;32.65;22.95;;;2.60;99.90;;;;;;4860443;29;20224;-76
2021/03/19 04:56:15;;;;;;;28.83;21.00;;;2.70;99.90;;;;;;4862094;29;20271;-76
2021/03/19 04:58:42;;;;;;;32.75;22.27;;;2.80;99.90;;;;;;4860659;29;20231;-76
2021/03/19 05:01:08;;;;;;;31.10;22.98;;;2.80;99.90;;;;;;4860988;29;20210;-76
2021/03/19 05:03:35;;;;;;;33.72;21.67;;;2.90;99.90;;;;;;4869988;29;20643;-76
2021/03/19 05:06:02;;;;;;;26.98;21.10;;;2.90;99.90;;;;;;4860196;29;20454;-76
2021/03/19 05:08:28;;;;;;;31.17;21.50;;;3.00;99.90;;;;;;4853534;29;20252;-76
2021/03/19 05:10:55;;;;;;;27.85;20.42;;;3.00;99.90;;;;;;4874098;29;20554;-76
2021/03/19 05:13:21;;;;;;;30.23;22.02;;;3.00;99.90;;;;;;4861223;29;20313;-76
2021/03/19 05:15:48;;;;;;;30.67;21.52;;;3.10;99.90;;;;;;4865833;29;20403;-76
2021/03/19 05:18:14;;;;;;;32.05;22.92;;;3.10;99.90;;;;;;4878183;29;20241;-77
2021/03/19 05:20:41;;;;;;;29.00;20.27;;;3.10;99.90;;;;;;4869492;29;20199;-76
2021/03/19 05:23:26;;;;;;;28.08;22.38;;;3.10;99.90;;;;;;4844445;29;20654;-76
2021/03/19 05:25:53;;;;;;;29.80;21.00;;;3.00;99.90;;;;;;4871687;29;20705;-76
2021/03/19 05:28:21;;;;;;;28.60;19.27;;;3.10;99.90;;;;;;4873770;29;20226;-76
2021/03/19 05:30:57;;;;;;;27.98;21.00;;;3.10;99.90;;;;;;4845253;29;20194;-76
2021/03/19 05:33:27;;;;;;;32.33;19.88;;;3.10;99.90;;;;;;4877475;29;20222;-76
2021/03/19 05:35:55;;;;;;;25.80;19.83;;;3.00;99.90;;;;;;4860945;29;20318;-76
2021/03/19 05:38:23;;;;;;;26.83;20.10;;;3.00;99.90;;;;;;4859883;29;20222;-76
2021/03/19 05:40:56;;;;;;;27.33;19.23;;;3.00;99.90;;;;;;4877175;29;20289;-76
2021/03/19 05:43:34;;;;;;;27.70;19.92;;;3.00;99.90;;;;;;4869426;29;20227;-76
2021/03/19 05:46:12;;;;;;;28.33;21.85;;;3.00;99.90;;;;;;4844335;29;20211;-76
2021/03/19 05:48:44;;;;;;;29.77;20.52;;;3.00;99.90;;;;;;4860285;29;20275;-76
2021/03/19 05:51:32;;;;;;;28.67;20.95;;;3.00;99.90;;;;;;4878833;29;20221;-76
2021/03/19 05:54:11;;;;;;;27.08;20.80;;;3.00;99.90;;;;;;4860409;29;20605;-76
2021/03/19 05:56:39;;;;;;;26.92;20.02;;;3.00;99.90;;;;;;4860482;29;20555;-76
2021/03/19 05:59:05;;;;;;;29.98;20.52;;;3.00;99.90;;;;;;4861377;29;20239;-76
2021/03/19 06:01:37;;;;;;;27.60;20.08;;;3.00;99.90;;;;;;4879260;29;20211;-76
2021/03/19 06:04:05;;;;;;;26.00;18.40;;;2.90;99.90;;;;;;4860469;29;20836;-76
2021/03/19 06:07:04;;;;;;;21.25;18.00;;;2.90;99.90;;;;;;4878408;29;20199;-76
2021/03/19 06:09:38;;;;;;;22.25;18.70;;;3.00;99.90;;;;;;4869240;29;20606;-76
2021/03/19 06:12:10;;;;;;;24.25;18.35;;;3.00;99.90;;;;;;4862661;29;20214;-76
2021/03/19 06:14:50;;;;;;;26.38;18.75;;;3.00;99.90;;;;;;4865030;29;20242;-76
2021/03/19 06:17:45;;;;;;;27.20;18.88;;;3.00;99.90;;;;;;4878200;29;20218;-76
2021/03/19 06:20:15;;;;;;;23.92;17.45;;;2.90;99.90;;;;;;4869674;29;20196;-76
2021/03/19 06:23:05;;;;;;;28.00;19.42;;;3.00;99.90;;;;;;4858819;29;20226;-76
2021/03/19 06:25:55;;;;;;;26.92;19.92;;;3.00;99.90;;;;;;4874396;29;20218;-76
2021/03/19 06:28:30;;;;;;;23.25;18.67;;;3.00;99.90;;;;;;4860829;29;20336;-76
2021/03/19 06:31:20;;;;;;;26.45;18.80;;;3.10;99.90;;;;;;4877383;29;20189;-76
2021/03/19 06:34:01;;;;;;;23.70;18.60;;;3.10;99.90;;;;;;4867300;29;20598;-76
2021/03/19 06:36:27;;;;;;;27.52;17.83;;;3.10;99.90;;;;;;4854912;29;20191;-76
2021/03/19 06:39:26;;;;;;;27.38;18.60;;;3.10;99.90;;;;;;4873516;29;20222;-76
2021/03/19 06:42:19;;;;;;;22.77;17.52;;;3.30;99.90;;;;;;4864257;29;20219;-76
2021/03/19 06:45:05;;;;;;;24.63;18.98;;;3.30;99.90;;;;;;4832869;29;20223;-76
2021/03/19 06:47:48;;;;;;;25.42;19.80;;;3.40;99.90;;;;;;4860936;29;20250;-76
2021/03/19 06:50:25;;;;;;;25.40;20.17;;;3.50;99.90;;;;;;4868620;29;20198;-76
2021/03/19 06:53:13;;;;;;;30.00;19.85;;;3.50;99.90;;;;;;4843152;29;20281;-76
2021/03/19 06:55:46;;;;;;;31.33;20.35;;;3.60;99.90;;;;;;4864519;29;20202;-76
2021/03/19 06:58:13;;;;;;;31.35;20.92;;;3.70;99.90;;;;;;4868396;29;20242;-77
2021/03/19 07:00:46;;;;;;;24.95;19.80;;;3.80;99.90;;;;;;4877901;29;20207;-76
2021/03/19 07:03:57;;;;;;;29.98;21.23;;;3.80;99.90;;;;;;4852056;29;20282;-76
2021/03/19 07:06:45;;;;;;;26.65;21.45;;;3.90;99.90;;;;;;4815326;29;20567;-76
2021/03/19 07:09:23;;;;;;;30.35;20.98;;;4.00;99.90;;;;;;4859784;29;20627;-76
2021/03/19 07:12:12;;;;;;;28.98;19.63;;;4.10;99.90;;;;;;4872195;29;20195;-76
2021/03/19 07:15:00;;;;;;;27.80;20.20;;;4.10;99.90;;;;;;4843135;29;20701;-76
2021/03/19 07:17:55;;;;;;;28.65;20.63;;;4.20;99.90;;;;;;4858593;29;20262;-77
2021/03/19 07:20:47;;;;;;;26.30;19.50;;;4.30;99.90;;;;;;4867174;29;20268;-77
2021/03/19 07:23:17;;;;;;;30.67;20.15;;;4.40;99.90;;;;;;4860167;29;20705;-76
2021/03/19 07:25:55;;;;;;;25.50;18.70;;;4.50;99.90;;;;;;4873163;29;20709;-76
2021/03/19 07:28:56;;;;;;;27.95;20.52;;;4.60;99.90;;;;;;4862197;29;20214;-77
2021/03/19 07:31:45;;;;;;;25.55;17.75;;;4.70;99.90;;;;;;4860974;29;20808;-76
2021/03/19 07:34:49;;;;;;;26.25;19.35;;;4.70;99.90;;;;;;4864529;29;20250;-77
2021/03/19 07:37:36;;;;;;;23.60;18.80;;;4.70;99.90;;;;;;4858523;29;20225;-77
2021/03/19 07:40:25;;;;;;;23.95;18.10;;;4.80;99.90;;;;;;4872777;29;20195;-77
2021/03/19 07:43:12;;;;;;;23.60;18.85;;;4.80;99.90;;;;;;4851856;29;20253;-76
2021/03/19 07:45:54;;;;;;;26.33;19.27;;;4.90;99.90;;;;;;4845666;29;20213;-77
2021/03/19 07:48:51;;;;;;;26.20;18.83;;;5.00;99.90;;;;;;4870490;29;20249;-77
2021/03/19 07:51:39;;;;;;;26.25;18.33;;;5.10;99.90;;;;;;4866019;29;20206;-77
2021/03/19 07:54:18;;;;;;;23.90;18.45;;;5.20;99.90;;;;;;4868713;29;20571;-77
2021/03/19 07:57:06;;;;;;;23.20;17.27;;;5.30;99.90;;;;;;4880158;29;20277;-76
2021/03/19 07:59:40;;;;;;;29.25;19.85;;;5.40;99.90;;;;;;4870911;29;20713;-76
2021/03/19 08:02:12;;;;;;;23.67;17.48;;;5.40;99.90;;;;;;4870323;29;20259;-77
2021/03/19 08:04:50;;;;;;;24.38;19.35;;;5.50;99.90;;;;;;4854069;29;20297;-77
2021/03/19 08:07:51;;;;;;;25.55;19.00;;;5.50;99.90;;;;;;4868056;29;20225;-76
2021/03/19 08:10:32;;;;;;;21.05;16.77;;;5.60;99.90;;;;;;4866995;29;20234;-76
2021/03/19 08:13:24;;;;;;;26.23;18.67;;;5.80;99.90;;;;;;4872952;29;20257;-76
2021/03/19 08:16:05;;;;;;;24.23;18.17;;;5.80;99.90;;;;;;4864616;29;20618;-76
2021/03/19 08:19:14;;;;;;;26.25;18.90;;;5.80;99.90;;;;;;4862521;29;20267;-77
2021/03/19 08:22:05;;;;;;;24.80;19.05;;;5.90;99.90;;;;;;4862205;29;20207;-76
2021/03/19 08:24:50;;;;;;;25.85;20.15;;;5.80;99.90;;;;;;4873621;29;20215;-76
2021/03/19 08:27:53;;;;;;;31.05;20.33;;;5.70;99.90;;;;;;4865041;29;20222;-76
2021/03/19 08:30:43;;;;;;;28.90;18.70;;;5.80;99.90;;;;;;4871133;29;20198;-76
2021/03/19 08:33:34;;;;;;;26.92;18.50;;;5.90;99.90;;;;;;4875390;29;20287;-76
2021/03/19 08:36:32;;;;;;;24.48;18.02;;;5.90;99.90;;;;;;4871143;29;20291;-76
2021/03/19 08:39:26;;;;;;;22.60;18.75;;;5.90;99.90;;;;;;4869771;29;20286;-76
2021/03/19 08:42:19;;;;;;;23.75;17.38;;;6.00;99.90;;;;;;4852663;29;20732;-76
2021/03/19 08:44:47;;;;;;;23.13;16.05;;;6.10;99.90;;;;;;4877642;29;20293;-76
2021/03/19 08:47:25;;;;;;;20.00;17.00;;;6.20;99.90;;;;;;4878693;29;20218;-76
2021/03/19 08:49:56;;;;;;;25.58;17.13;;;6.40;99.90;;;;;;4876457;29;20249;-76
2021/03/19 08:52:36;;;;;;;23.17;16.88;;;6.50;99.90;;;;;;4878463;29;20309;-76
2021/03/19 08:55:12;;;;;;;19.73;15.05;;;6.60;99.90;;;;;;4868027;29;20239;-76
2021/03/19 08:57:40;;;;;;;21.80;13.73;;;6.70;99.90;;;;;;4865074;29;20220;-76
2021/03/19 09:00:38;;;;;;;18.88;12.88;;;6.90;99.90;;;;;;4865867;29;20199;-76
2021/03/19 09:03:11;;;;;;;15.65;11.25;;;6.90;99.90;;;;;;4849391;29;20227;-76
2021/03/19 09:06:16;;;;;;;15.15;11.45;;;7.00;99.90;;;;;;4872799;29;20218;-76
2021/03/19 09:08:44;;;;;;;12.02;10.43;;;7.20;99.90;;;;;;4841339;29;20586;-76
2021/03/19 09:11:15;;;;;;;12.10;10.00;;;7.30;99.90;;;;;;4868097;29;20187;-76
2021/03/19 09:13:59;;;;;;;12.98;10.82;;;7.40;99.90;;;;;;4869192;29;20302;-76
2021/03/19 09:16:50;;;;;;;10.85;8.90;;;7.40;99.90;;;;;;4860356;29;20223;-76
2021/03/19 09:19:33;;;;;;;10.98;9.52;;;7.40;99.90;;;;;;4874101;29;20271;-76
2021/03/19 09:22:22;;;;;;;14.75;9.88;;;7.60;99.90;;;;;;4864805;29;20230;-76
2021/03/19 09:25:21;;;;;;;10.23;8.75;;;7.50;99.90;;;;;;4865331;29;20563;-76
2021/03/19 09:28:17;;;;;;;10.30;7.72;;;7.60;99.90;;;;;;4842724;29;20327;-76
2021/03/19 09:31:06;;;;;;;11.25;8.85;;;7.60;99.90;;;;;;4855703;29;20563;-76
2021/03/19 09:33:45;;;;;;;8.07;7.28;;;7.60;99.90;;;;;;4861816;29;20257;-76
2021/03/19 09:36:52;;;;;;;10.05;7.78;;;7.60;99.90;;;;;;4868983;29;20211;-76
2021/03/19 09:39:43;;;;;;;9.32;7.63;;;7.70;99.90;;;;;;4860216;29;20216;-76
2021/03/19 09:42:35;;;;;;;8.65;7.53;;;7.80;99.90;;;;;;4872139;29;20233;-76
2021/03/19 09:45:03;;;;;;;10.37;6.90;;;7.80;99.90;;;;;;4863042;29;20224;-76
2021/03/19 09:47:45;;;;;;;11.57;8.10;;;7.90;99.90;;;;;;4859543;29;20508;-76
2021/03/19 09:50:22;;;;;;;10.63;7.38;;;8.00;99.90;;;;;;4872694;29;20677;-76
2021/03/19 09:53:05;;;;;;;12.70;7.72;;;8.00;99.90;;;;;;4864460;29;20226;-76
2021/03/19 09:55:41;;;;;;;7.65;6.25;;;7.90;99.90;;;;;;4872283;29;20246;-76
2021/03/19 09:58:27;;;;;;;8.45;6.30;;;7.80;95.70;;;;;;4874691;29;20234;-76
2021/03/19 10:01:00;;;;;;;8.05;5.82;;;7.60;97.10;;;;;;4862762;29;20190;-76
2021/03/19 10:03:27;;;;;;;8.07;6.10;;;7.30;96.60;;;;;;4877130;29;20317;-76
2021/03/19 10:05:54;;;;;;;6.32;5.68;;;7.10;96.00;;;;;;4874698;29;20261;-76
2021/03/19 10:08:27;;;;;;;6.25;5.65;;;6.90;96.70;;;;;;4845376;29;20219;-76
2021/03/19 10:11:04;;;;;;;8.30;6.00;;;6.90;95.70;;;;;;4869714;29;20198;-75
2021/03/19 10:13:30;;;;;;;6.70;6.00;;;7.00;99.50;;;;;;4864008;29;20234;-76
2021/03/19 10:15:58;;;;;;;6.28;5.60;;;7.30;99.90;;;;;;4874803;29;20820;-76
2021/03/19 10:18:30;;;;;;;7.18;5.35;;;7.50;98.80;;;;;;4861587;29;20637;-76
2021/03/19 10:21:01;;;;;;;5.68;4.95;;;7.90;97.60;;;;;;4866254;29;20227;-76
2021/03/19 10:23:35;;;;;;;9.15;5.75;;;8.10;97.40;;;;;;4874996;29;20249;-76
2021/03/19 10:26:31;;;;;;;6.78;6.07;;;8.00;92.60;;;;;;4862431;29;20207;-76
2021/03/19 10:29:13;;;;;;;5.30;4.80;;;8.00;92.50;;;;;;4863862;29;20229;-76
2021/03/19 10:31:56;;;;;;;5.80;5.03;;;8.10;90.60;;;;;;4862657;29;20210;-76
2021/03/19 10:35:04;;;;;;;6.20;5.35;;;8.10;91.60;;;;;;4861266;29;20690;-76
2021/03/19 10:37:38;;;;;;;6.80;5.90;;;8.00;92.50;;;;;;4821565;29;20234;-76
2021/03/19 10:40:21;;;;;;;6.40;5.15;;;8.00;92.40;;;;;;4864667;29;20201;-76
2021/03/19 10:43:10;;;;;;;8.75;5.43;;;8.10;96.20;;;;;;4853469;29;20227;-76
2021/03/19 10:45:45;;;;;;;5.80;5.20;;;8.00;94.80;;;;;;4868428;29;20218;-76
2021/03/19 10:48:15;;;;;;;7.32;4.82;;;7.90;95.20;;;;;;4851333;29;20733;-76
2021/03/19 10:51:14;;;;;;;5.78;5.18;;;7.80;92.90;;;;;;4873969;29;20603;-76
2021/03/19 10:53:55;;;;;;;6.63;4.20;;;7.60;91.80;;;;;;4864373;29;20223;-76
2021/03/19 10:56:25;;;;;;;5.47;3.83;;;7.60;92.60;;;;;;4866676;29;20195;-76
2021/03/19 10:59:07;;;;;;;3.80;3.45;;;7.70;92.90;;;;;;4860185;29;20226;-76
2021/03/19 11:01:37;;;;;;;3.75;3.20;;;7.70;90.60;;;;;;4861633;29;20245;-76
2021/03/19 11:04:26;;;;;;;4.03;3.72;;;7.80;91.50;;;;;;4843060;29;20215;-76
2021/03/19 11:07:15;;;;;;;4.72;3.83;;;7.90;88.60;;;;;;4868773;29;20556;-76
2021/03/19 11:10:10;;;;;;;4.38;3.97;;;8.00;90.20;;;;;;4855628;29;20195;-76
2021/03/19 11:13:17;;;;;;;4.13;3.20;;;8.20;89.70;;;;;;4841333;29;20215;-76
2021/03/19 11:15:46;;;;;;;3.83;3.45;;;8.30;90.90;;;;;;4846098;29;20275;-76
2021/03/19 11:18:19;;;;;;;4.38;2.97;;;8.40;87.10;;;;;;4874338;29;20214;-76
2021/03/19 11:21:14;;;;;;;3.78;3.13;;;8.40;81.30;;;;;;4871092;29;20201;-76
2021/03/19 11:23:44;;;;;;;4.22;3.80;;;8.40;81.50;;;;;;4860988;29;20288;-76
2021/03/19 11:26:27;;;;;;;4.40;4.00;;;8.40;81.20;;;;;;4858633;29;20253;-76
2021/03/19 11:29:13;;;;;;;4.05;3.70;;;8.50;91.30;;;;;;4865617;29;20223;-76
2021/03/19 11:32:02;;;;;;;3.60;2.38;;;8.50;83.10;;;;;;4868737;29;20187;-76
2021/03/19 11:34:38;;;;;;;4.55;2.38;;;8.50;80.10;;;;;;4873646;29;20209;-76
2021/03/19 11:37:13;;;;;;;2.88;2.58;;;8.50;77.00;;;;;;4869237;29;20234;-76
2021/03/19 11:39:59;;;;;;;2.63;2.40;;;8.50;78.90;;;;;;4875648;29;20270;-76
2021/03/19 11:42:29;;;;;;;4.90;3.53;;;8.50;81.30;;;;;;4871465;29;20270;-76
2021/03/19 11:44:59;;;;;;;4.60;3.30;;;8.60;85.60;;;;;;4856949;29;20218;-76
2021/03/19 11:47:32;;;;;;;3.85;3.47;;;8.60;84.10;;;;;;4853586;29;20332;-76
2021/03/19 11:50:22;;;;;;;4.43;2.83;;;8.70;86.90;;;;;;4856389;29;20225;-76
2021/03/19 11:52:58;;;;;;;3.88;2.67;;;8.60;83.20;;;;;;4865203;29;20713;-76
2021/03/19 11:55:38;;;;;;;4.00;3.13;;;8.50;80.50;;;;;;4875186;29;20236;-76
2021/03/19 11:58:06;;;;;;;4.63;2.85;;;8.40;80.00;;;;;;4858905;29;20227;-76
2021/03/19 12:00:36;;;;;;;4.03;3.15;;;8.30;79.40;;;;;;4865672;29;20195;-76
2021/03/19 12:03:06;;;;;;;3.72;2.80;;;8.40;85.10;;;;;;4866700;29;20246;-76
2021/03/19 12:05:34;;;;;;;6.50;2.85;;;8.50;86.40;;;;;;4861254;29;20231;-76
2021/03/19 12:08:01;;;;;;;2.72;2.53;;;8.60;83.20;;;;;;4858046;29;20695;-76
2021/03/19 12:10:29;;;;;;;3.25;2.63;;;8.50;83.10;;;;;;4860151;29;20200;-76
2021/03/19 12:12:59;;;;;;;3.92;2.40;;;8.70;83.30;;;;;;4866535;29;20328;-76
2021/03/19 12:15:29;;;;;;;2.50;2.30;;;8.70;79.00;;;;;;4869954;29;20211;-76
2021/03/19 12:18:00;;;;;;;2.80;2.30;;;8.80;74.30;;;;;;4873059;29;20230;-76
2021/03/19 12:20:31;;;;;;;5.63;2.50;;;8.80;77.60;;;;;;4859643;29;20198;-76
2021/03/19 12:22:58;;;;;;;2.13;1.92;;;8.80;77.00;;;;;;4862036;29;20604;-76
2021/03/19 12:25:28;;;;;;;2.70;2.30;;;8.90;76.80;;;;;;4871799;29;20298;-76
2021/03/19 12:27:55;;;;;;;3.25;2.95;;;9.00;73.50;;;;;;4855342;29;20653;-76
2021/03/19 12:30:22;;;;;;;3.38;3.03;;;9.10;75.80;;;;;;4862937;29;20205;-76
2021/03/19 12:32:53;;;;;;;3.75;2.03;;;9.20;72.60;;;;;;4868084;29;20659;-76
2021/03/19 12:35:23;;;;;;;3.15;2.63;;;9.20;71.50;;;;;;4856212;29;20719;-76
2021/03/19 12:37:51;;;;;;;2.90;2.60;;;9.20;73.20;;;;;;4862573;29;20223;-76
2021/03/19 12:40:21;;;;;;;2.20;2.00;;;9.20;75.10;;;;;;4861636;29;20204;-76
2021/03/19 12:42:48;;;;;;;3.63;2.70;;;9.30;74.50;;;;;;4832488;29;20228;-76
2021/03/19 12:45:17;;;;;;;2.30;2.03;;;9.20;72.80;;;;;;4867403;29;20222;-76
2021/03/19 12:47:44;;;;;;;2.85;2.05;;;9.00;68.70;;;;;;4872218;29;20225;-76
2021/03/19 12:50:11;;;;;;;2.35;2.15;;;8.80;72.20;;;;;;4878959;29;20206;-76
2021/03/19 12:52:38;;;;;;;3.80;2.40;;;8.80;76.50;;;;;;4867197;29;20690;-76
2021/03/19 12:55:06;;;;;;;2.75;2.03;;;8.90;73.60;;;;;;4849913;29;20215;-76
2021/03/19 12:57:33;;;;;;;5.00;1.77;;;9.00;77.30;;;;;;4862358;29;20227;-76
2021/03/19 13:00:01;;;;;;;2.25;2.00;;;9.10;68.40;;;;;;4871161;29;20218;-76
2021/03/19 13:02:27;;;;;;;1.80;1.70;;;9.10;71.30;;;;;;4880067;29;20238;-76
2021/03/19 13:04:54;;;;;;;3.20;1.65;;;9.00;67.10;;;;;;4866870;29;20229;-76
2021/03/19 13:07:21;;;;;;;2.25;1.55;;;8.80;67.60;;;;;;4862092;29;20275;-76
2021/03/19 13:09:48;;;;;;;2.15;1.75;;;8.80;71.10;;;;;;4870748;29;20191;-76
2021/03/19 13:12:16;;;;;;;2.00;1.60;;;9.00;71.90;;;;;;4872751;29;20223;-76
2021/03/19 13:14:55;;;;;;;2.47;2.20;;;9.10;68.30;;;;;;4860157;29;20216;-76
2021/03/19 13:17:22;;;;;;;2.25;1.88;;;9.20;70.20;;;;;;4875299;29;20274;-76
2021/03/19 13:19:50;;;;;;;2.83;2.58;;;9.30;72.40;;;;;;4871501;29;20657;-76
2021/03/19 13:22:17;;;;;;;2.28;1.90;;;9.40;70.80;;;;;;4849166;29;20632;-76
2021/03/19 13:24:43;;;;;;;1.60;1.50;;;9.60;76.20;;;;;;4878613;29;20218;-76
2021/03/19 13:27:11;;;;;;;2.53;2.30;;;9.60;75.40;;;;;;4876235;29;20227;-76
2021/03/19 13:29:38;;;;;;;4.97;2.60;;;9.60;77.70;;;;;;4864851;29;20210;-76
2021/03/19 13:32:07;;;;;;;2.40;1.97;;;9.70;74.70;;;;;;4863018;29;20560;-76